sensor_id;sensor_type;location;lat;lon;timestamp;P1;durP1;ratioP1;P2;durP2;ratioP2
43146;SDS011;28752;48.266;7.402;2023-06-22T00:01:54;6.93;;;3.10;;
43146;SDS011;28752;48.266;7.402;2023-06-22T00:04:20;7.10;;;3.58;;
43146;SDS011;28752;48.266;7.402;2023-06-22T00:06:45;6.55;;;3.50;;
43146;SDS011;28752;48.266;7.402;2023-06-22T00:09:10;6.55;;;3.58;;
43146;SDS011;28752;48.266;7.402;2023-06-22T00:11:36;5.25;;;3.22;;
43146;SDS011;28752;48.266;7.402;2023-06-22T00:14:03;6.55;;;3.67;;
43146;SDS011;28752;48.266;7.402;2023-06-22T00:16:28;8.85;;;3.72;;
43146;SDS011;28752;48.266;7.402;2023-06-22T00:18:54;6.82;;;3.28;;
43146;SDS011;28752;48.266;7.402;2023-06-22T00:21:19;6.97;;;3.65;;
43146;SDS011;28752;48.266;7.402;2023-06-22T00:23:45;6.03;;;3.30;;
43146;SDS011;28752;48.266;7.402;2023-06-22T00:26:12;5.85;;;3.38;;
43146;SDS011;28752;48.266;7.402;2023-06-22T00:28:38;7.45;;;3.40;;
43146;SDS011;28752;48.266;7.402;2023-06-22T00:31:03;6.57;;;3.30;;
43146;SDS011;28752;48.266;7.402;2023-06-22T00:35:54;6.87;;;3.30;;
43146;SDS011;28752;48.266;7.402;2023-06-22T00:38:19;6.63;;;3.78;;
43146;SDS011;28752;48.266;7.402;2023-06-22T00:40:44;6.80;;;3.92;;
43146;SDS011;28752;48.266;7.402;2023-06-22T00:43:10;7.03;;;4.07;;
43146;SDS011;28752;48.266;7.402;2023-06-22T00:45:35;7.30;;;3.88;;
43146;SDS011;28752;48.266;7.402;2023-06-22T00:48:01;6.13;;;3.70;;
43146;SDS011;28752;48.266;7.402;2023-06-22T00:50:34;6.93;;;3.72;;
43146;SDS011;28752;48.266;7.402;2023-06-22T00:53:04;7.18;;;3.95;;
43146;SDS011;28752;48.266;7.402;2023-06-22T00:55:38;7.72;;;4.10;;
43146;SDS011;28752;48.266;7.402;2023-06-22T00:58:08;6.28;;;3.63;;
43146;SDS011;28752;48.266;7.402;2023-06-22T01:00:35;7.78;;;3.95;;
43146;SDS011;28752;48.266;7.402;2023-06-22T01:05:27;8.43;;;4.45;;
43146;SDS011;28752;48.266;7.402;2023-06-22T01:12:59;6.63;;;3.70;;
43146;SDS011;28752;48.266;7.402;2023-06-22T01:15:33;6.55;;;3.75;;
43146;SDS011;28752;48.266;7.402;2023-06-22T01:18:09;6.25;;;3.50;;
43146;SDS011;28752;48.266;7.402;2023-06-22T01:20:36;6.68;;;3.67;;
43146;SDS011;28752;48.266;7.402;2023-06-22T01:31:00;7.28;;;3.72;;
43146;SDS011;28752;48.266;7.402;2023-06-22T01:33:34;6.30;;;3.42;;
43146;SDS011;28752;48.266;7.402;2023-06-22T01:36:02;7.13;;;3.70;;
43146;SDS011;28752;48.266;7.402;2023-06-22T01:38:29;8.20;;;3.92;;
43146;SDS011;28752;48.266;7.402;2023-06-22T01:40:57;7.68;;;4.00;;
43146;SDS011;28752;48.266;7.402;2023-06-22T01:43:24;7.05;;;3.95;;
43146;SDS011;28752;48.266;7.402;2023-06-22T01:45:51;6.32;;;3.78;;
43146;SDS011;28752;48.266;7.402;2023-06-22T01:48:17;6.15;;;3.65;;
43146;SDS011;28752;48.266;7.402;2023-06-22T01:50:44;7.95;;;4.07;;
43146;SDS011;28752;48.266;7.402;2023-06-22T01:53:10;7.90;;;3.97;;
43146;SDS011;28752;48.266;7.402;2023-06-22T01:55:36;8.43;;;4.40;;
43146;SDS011;28752;48.266;7.402;2023-06-22T01:58:01;7.50;;;4.25;;
43146;SDS011;28752;48.266;7.402;2023-06-22T02:00:26;8.82;;;4.50;;
43146;SDS011;28752;48.266;7.402;2023-06-22T02:02:58;7.40;;;4.25;;
43146;SDS011;28752;48.266;7.402;2023-06-22T02:05:43;7.97;;;4.30;;
43146;SDS011;28752;48.266;7.402;2023-06-22T02:08:20;7.45;;;3.92;;
43146;SDS011;28752;48.266;7.402;2023-06-22T02:10:49;7.32;;;4.28;;
43146;SDS011;28752;48.266;7.402;2023-06-22T02:13:17;8.07;;;3.88;;
43146;SDS011;28752;48.266;7.402;2023-06-22T02:15:44;8.80;;;4.20;;
43146;SDS011;28752;48.266;7.402;2023-06-22T02:18:11;7.22;;;4.43;;
43146;SDS011;28752;48.266;7.402;2023-06-22T02:20:37;8.48;;;4.35;;
43146;SDS011;28752;48.266;7.402;2023-06-22T02:23:03;7.38;;;4.28;;
43146;SDS011;28752;48.266;7.402;2023-06-22T02:27:54;7.68;;;4.28;;
43146;SDS011;28752;48.266;7.402;2023-06-22T02:30:20;8.03;;;4.43;;
43146;SDS011;28752;48.266;7.402;2023-06-22T02:32:45;8.77;;;3.87;;
43146;SDS011;28752;48.266;7.402;2023-06-22T02:35:10;7.65;;;4.47;;
43146;SDS011;28752;48.266;7.402;2023-06-22T02:37:36;8.63;;;4.05;;
43146;SDS011;28752;48.266;7.402;2023-06-22T02:40:07;7.45;;;4.03;;
43146;SDS011;28752;48.266;7.402;2023-06-22T02:42:34;10.43;;;4.43;;
43146;SDS011;28752;48.266;7.402;2023-06-22T02:45:00;8.77;;;4.80;;
43146;SDS011;28752;48.266;7.402;2023-06-22T02:47:26;6.85;;;4.15;;
43146;SDS011;28752;48.266;7.402;2023-06-22T02:49:51;9.13;;;4.40;;
43146;SDS011;28752;48.266;7.402;2023-06-22T02:52:17;7.55;;;4.18;;
43146;SDS011;28752;48.266;7.402;2023-06-22T02:54:42;7.90;;;4.15;;
43146;SDS011;28752;48.266;7.402;2023-06-22T02:57:10;7.45;;;4.10;;
43146;SDS011;28752;48.266;7.402;2023-06-22T02:59:38;8.55;;;4.40;;
43146;SDS011;28752;48.266;7.402;2023-06-22T03:02:05;9.27;;;4.57;;
43146;SDS011;28752;48.266;7.402;2023-06-22T03:04:31;8.10;;;3.90;;
43146;SDS011;28752;48.266;7.402;2023-06-22T03:06:56;8.00;;;4.22;;
43146;SDS011;28752;48.266;7.402;2023-06-22T03:09:25;6.85;;;3.83;;
43146;SDS011;28752;48.266;7.402;2023-06-22T03:11:51;9.23;;;4.32;;
43146;SDS011;28752;48.266;7.402;2023-06-22T03:14:17;7.27;;;3.87;;
43146;SDS011;28752;48.266;7.402;2023-06-22T03:16:42;8.05;;;4.15;;
43146;SDS011;28752;48.266;7.402;2023-06-22T03:19:07;7.67;;;3.87;;
43146;SDS011;28752;48.266;7.402;2023-06-22T03:21:33;7.30;;;4.03;;
43146;SDS011;28752;48.266;7.402;2023-06-22T03:23:58;7.87;;;4.43;;
43146;SDS011;28752;48.266;7.402;2023-06-22T03:26:23;8.10;;;4.57;;
43146;SDS011;28752;48.266;7.402;2023-06-22T03:28:51;6.30;;;4.10;;
43146;SDS011;28752;48.266;7.402;2023-06-22T03:31:17;6.65;;;3.80;;
43146;SDS011;28752;48.266;7.402;2023-06-22T03:33:46;7.28;;;3.97;;
43146;SDS011;28752;48.266;7.402;2023-06-22T03:36:13;9.35;;;4.78;;
43146;SDS011;28752;48.266;7.402;2023-06-22T03:38:38;9.07;;;4.70;;
43146;SDS011;28752;48.266;7.402;2023-06-22T03:41:03;8.75;;;4.55;;
43146;SDS011;28752;48.266;7.402;2023-06-22T03:43:29;9.47;;;4.30;;
43146;SDS011;28752;48.266;7.402;2023-06-22T03:45:54;9.67;;;5.07;;
43146;SDS011;28752;48.266;7.402;2023-06-22T03:48:19;7.93;;;4.23;;
43146;SDS011;28752;48.266;7.402;2023-06-22T03:50:45;8.70;;;4.97;;
43146;SDS011;28752;48.266;7.402;2023-06-22T03:53:10;6.95;;;4.10;;
43146;SDS011;28752;48.266;7.402;2023-06-22T03:55:36;8.27;;;3.88;;
43146;SDS011;28752;48.266;7.402;2023-06-22T03:58:01;8.68;;;4.32;;
43146;SDS011;28752;48.266;7.402;2023-06-22T04:00:30;9.05;;;3.97;;
43146;SDS011;28752;48.266;7.402;2023-06-22T04:02:57;6.90;;;4.03;;
43146;SDS011;28752;48.266;7.402;2023-06-22T04:05:22;6.68;;;4.20;;
43146;SDS011;28752;48.266;7.402;2023-06-22T04:07:49;8.70;;;4.38;;
43146;SDS011;28752;48.266;7.402;2023-06-22T04:10:14;7.55;;;4.38;;
43146;SDS011;28752;48.266;7.402;2023-06-22T04:12:40;9.23;;;4.63;;
43146;SDS011;28752;48.266;7.402;2023-06-22T04:15:05;7.57;;;4.27;;
43146;SDS011;28752;48.266;7.402;2023-06-22T04:17:31;7.28;;;3.88;;
43146;SDS011;28752;48.266;7.402;2023-06-22T04:19:56;7.33;;;3.73;;
43146;SDS011;28752;48.266;7.402;2023-06-22T04:22:22;8.97;;;4.40;;
43146;SDS011;28752;48.266;7.402;2023-06-22T04:24:47;7.87;;;4.23;;
43146;SDS011;28752;48.266;7.402;2023-06-22T04:27:12;6.90;;;3.70;;
43146;SDS011;28752;48.266;7.402;2023-06-22T04:29:38;8.80;;;4.10;;
43146;SDS011;28752;48.266;7.402;2023-06-22T04:32:08;7.53;;;4.07;;
43146;SDS011;28752;48.266;7.402;2023-06-22T04:34:34;7.03;;;3.80;;
43146;SDS011;28752;48.266;7.402;2023-06-22T04:36:59;8.68;;;3.88;;
43146;SDS011;28752;48.266;7.402;2023-06-22T04:39:24;6.97;;;3.80;;
43146;SDS011;28752;48.266;7.402;2023-06-22T04:41:51;7.35;;;3.80;;
43146;SDS011;28752;48.266;7.402;2023-06-22T04:44:18;7.97;;;3.63;;
43146;SDS011;28752;48.266;7.402;2023-06-22T04:46:51;7.43;;;3.70;;
43146;SDS011;28752;48.266;7.402;2023-06-22T04:49:22;7.05;;;3.67;;
43146;SDS011;28752;48.266;7.402;2023-06-22T04:51:48;7.45;;;3.75;;
43146;SDS011;28752;48.266;7.402;2023-06-22T04:54:16;9.70;;;3.80;;
43146;SDS011;28752;48.266;7.402;2023-06-22T04:56:42;7.40;;;4.00;;
43146;SDS011;28752;48.266;7.402;2023-06-22T04:59:07;8.20;;;3.35;;
43146;SDS011;28752;48.266;7.402;2023-06-22T05:01:38;7.22;;;3.80;;
43146;SDS011;28752;48.266;7.402;2023-06-22T05:04:03;7.65;;;3.70;;
43146;SDS011;28752;48.266;7.402;2023-06-22T05:06:30;8.75;;;4.30;;
43146;SDS011;28752;48.266;7.402;2023-06-22T05:08:56;7.47;;;4.00;;
43146;SDS011;28752;48.266;7.402;2023-06-22T05:11:23;6.78;;;3.63;;
43146;SDS011;28752;48.266;7.402;2023-06-22T05:13:52;7.28;;;4.03;;
43146;SDS011;28752;48.266;7.402;2023-06-22T05:18:49;8.43;;;3.55;;
43146;SDS011;28752;48.266;7.402;2023-06-22T05:21:16;7.90;;;3.97;;
43146;SDS011;28752;48.266;7.402;2023-06-22T05:23:41;6.80;;;3.22;;
43146;SDS011;28752;48.266;7.402;2023-06-22T05:26:06;7.05;;;3.70;;
43146;SDS011;28752;48.266;7.402;2023-06-22T05:28:34;7.82;;;3.88;;
43146;SDS011;28752;48.266;7.402;2023-06-22T05:30:59;6.53;;;3.80;;
43146;SDS011;28752;48.266;7.402;2023-06-22T05:33:25;5.95;;;3.20;;
43146;SDS011;28752;48.266;7.402;2023-06-22T05:38:15;6.57;;;3.67;;
43146;SDS011;28752;48.266;7.402;2023-06-22T05:40:41;7.50;;;3.65;;
43146;SDS011;28752;48.266;7.402;2023-06-22T05:45:31;5.97;;;3.53;;
43146;SDS011;28752;48.266;7.402;2023-06-22T05:50:22;6.03;;;3.67;;
43146;SDS011;28752;48.266;7.402;2023-06-22T05:57:38;6.23;;;3.70;;
43146;SDS011;28752;48.266;7.402;2023-06-22T06:00:03;8.07;;;4.15;;
43146;SDS011;28752;48.266;7.402;2023-06-22T06:02:33;7.00;;;4.07;;
43146;SDS011;28752;48.266;7.402;2023-06-22T06:04:58;5.60;;;3.28;;
43146;SDS011;28752;48.266;7.402;2023-06-22T06:07:24;5.97;;;3.13;;
43146;SDS011;28752;48.266;7.402;2023-06-22T06:09:50;5.20;;;3.00;;
43146;SDS011;28752;48.266;7.402;2023-06-22T06:12:16;5.43;;;3.33;;
43146;SDS011;28752;48.266;7.402;2023-06-22T06:14:41;5.88;;;3.35;;
43146;SDS011;28752;48.266;7.402;2023-06-22T06:17:06;5.45;;;3.50;;
43146;SDS011;28752;48.266;7.402;2023-06-22T06:19:32;6.70;;;3.72;;
43146;SDS011;28752;48.266;7.402;2023-06-22T06:21:57;5.88;;;3.00;;
43146;SDS011;28752;48.266;7.402;2023-06-22T06:24:23;6.03;;;3.80;;
43146;SDS011;28752;48.266;7.402;2023-06-22T06:26:48;5.38;;;3.25;;
43146;SDS011;28752;48.266;7.402;2023-06-22T06:29:14;6.43;;;3.60;;
43146;SDS011;28752;48.266;7.402;2023-06-22T06:31:41;6.18;;;3.80;;
43146;SDS011;28752;48.266;7.402;2023-06-22T06:34:06;12.38;;;3.70;;
43146;SDS011;28752;48.266;7.402;2023-06-22T06:36:32;5.85;;;3.67;;
43146;SDS011;28752;48.266;7.402;2023-06-22T06:38:57;5.65;;;3.47;;
43146;SDS011;28752;48.266;7.402;2023-06-22T06:41:22;7.07;;;4.00;;
43146;SDS011;28752;48.266;7.402;2023-06-22T06:43:48;6.30;;;3.65;;
43146;SDS011;28752;48.266;7.402;2023-06-22T06:46:16;6.82;;;3.72;;
43146;SDS011;28752;48.266;7.402;2023-06-22T06:48:44;7.10;;;3.70;;
43146;SDS011;28752;48.266;7.402;2023-06-22T06:51:09;6.88;;;3.80;;
43146;SDS011;28752;48.266;7.402;2023-06-22T06:53:35;6.60;;;4.00;;
43146;SDS011;28752;48.266;7.402;2023-06-22T06:56:01;5.45;;;3.60;;
43146;SDS011;28752;48.266;7.402;2023-06-22T06:58:27;6.30;;;3.55;;
43146;SDS011;28752;48.266;7.402;2023-06-22T07:00:53;6.53;;;3.63;;
43146;SDS011;28752;48.266;7.402;2023-06-22T07:03:18;6.45;;;3.92;;
43146;SDS011;28752;48.266;7.402;2023-06-22T07:05:44;7.28;;;3.90;;
43146;SDS011;28752;48.266;7.402;2023-06-22T07:08:09;7.03;;;3.75;;
43146;SDS011;28752;48.266;7.402;2023-06-22T07:10:35;6.85;;;3.78;;
43146;SDS011;28752;48.266;7.402;2023-06-22T07:13:00;6.40;;;3.60;;
43146;SDS011;28752;48.266;7.402;2023-06-22T07:15:26;7.35;;;3.80;;
43146;SDS011;28752;48.266;7.402;2023-06-22T07:17:52;7.75;;;3.80;;
43146;SDS011;28752;48.266;7.402;2023-06-22T07:20:17;7.65;;;4.07;;
43146;SDS011;28752;48.266;7.402;2023-06-22T07:22:44;7.88;;;4.45;;
43146;SDS011;28752;48.266;7.402;2023-06-22T07:25:10;7.50;;;4.32;;
43146;SDS011;28752;48.266;7.402;2023-06-22T07:27:39;6.38;;;3.50;;
43146;SDS011;28752;48.266;7.402;2023-06-22T07:30:08;7.68;;;3.80;;
43146;SDS011;28752;48.266;7.402;2023-06-22T07:32:34;7.38;;;3.88;;
43146;SDS011;28752;48.266;7.402;2023-06-22T07:35:00;5.50;;;3.38;;
43146;SDS011;28752;48.266;7.402;2023-06-22T07:37:26;6.75;;;3.30;;
43146;SDS011;28752;48.266;7.402;2023-06-22T07:39:53;6.65;;;3.67;;
43146;SDS011;28752;48.266;7.402;2023-06-22T07:42:23;5.65;;;3.08;;
43146;SDS011;28752;48.266;7.402;2023-06-22T07:44:49;5.57;;;3.13;;
43146;SDS011;28752;48.266;7.402;2023-06-22T07:47:16;6.00;;;3.40;;
43146;SDS011;28752;48.266;7.402;2023-06-22T07:49:43;5.40;;;3.30;;
43146;SDS011;28752;48.266;7.402;2023-06-22T07:52:08;6.15;;;3.60;;
43146;SDS011;28752;48.266;7.402;2023-06-22T07:54:33;6.60;;;3.83;;
43146;SDS011;28752;48.266;7.402;2023-06-22T07:56:59;6.03;;;3.67;;
43146;SDS011;28752;48.266;7.402;2023-06-22T07:59:24;6.30;;;3.20;;
43146;SDS011;28752;48.266;7.402;2023-06-22T08:01:50;5.65;;;3.50;;
43146;SDS011;28752;48.266;7.402;2023-06-22T08:04:15;5.97;;;3.58;;
43146;SDS011;28752;48.266;7.402;2023-06-22T08:06:41;6.55;;;3.97;;
43146;SDS011;28752;48.266;7.402;2023-06-22T08:09:06;6.00;;;3.50;;
43146;SDS011;28752;48.266;7.402;2023-06-22T08:11:31;7.15;;;4.80;;
43146;SDS011;28752;48.266;7.402;2023-06-22T08:13:57;7.65;;;4.80;;
43146;SDS011;28752;48.266;7.402;2023-06-22T08:16:23;8.90;;;5.65;;
43146;SDS011;28752;48.266;7.402;2023-06-22T08:18:49;7.55;;;4.65;;
43146;SDS011;28752;48.266;7.402;2023-06-22T08:21:14;8.75;;;5.15;;
43146;SDS011;28752;48.266;7.402;2023-06-22T08:23:39;9.68;;;5.43;;
43146;SDS011;28752;48.266;7.402;2023-06-22T08:26:05;11.75;;;5.28;;
43146;SDS011;28752;48.266;7.402;2023-06-22T08:28:30;9.18;;;5.97;;
43146;SDS011;28752;48.266;7.402;2023-06-22T08:30:56;9.13;;;5.40;;
43146;SDS011;28752;48.266;7.402;2023-06-22T08:33:21;9.95;;;5.43;;
43146;SDS011;28752;48.266;7.402;2023-06-22T08:35:53;8.48;;;5.38;;
43146;SDS011;28752;48.266;7.402;2023-06-22T08:38:23;7.80;;;4.97;;
43146;SDS011;28752;48.266;7.402;2023-06-22T08:40:48;9.45;;;5.30;;
43146;SDS011;28752;48.266;7.402;2023-06-22T08:43:14;10.38;;;5.57;;
43146;SDS011;28752;48.266;7.402;2023-06-22T08:45:39;8.07;;;4.85;;
43146;SDS011;28752;48.266;7.402;2023-06-22T08:48:05;10.02;;;5.40;;
43146;SDS011;28752;48.266;7.402;2023-06-22T08:50:30;8.52;;;5.47;;
43146;SDS011;28752;48.266;7.402;2023-06-22T08:52:55;9.15;;;5.57;;
43146;SDS011;28752;48.266;7.402;2023-06-22T08:55:21;8.98;;;5.28;;
43146;SDS011;28752;48.266;7.402;2023-06-22T08:57:46;9.55;;;5.78;;
43146;SDS011;28752;48.266;7.402;2023-06-22T09:00:11;9.65;;;5.43;;
43146;SDS011;28752;48.266;7.402;2023-06-22T09:02:42;10.80;;;6.85;;
43146;SDS011;28752;48.266;7.402;2023-06-22T09:05:09;11.32;;;6.65;;
43146;SDS011;28752;48.266;7.402;2023-06-22T09:07:34;10.20;;;5.65;;
43146;SDS011;28752;48.266;7.402;2023-06-22T09:10:00;10.45;;;6.70;;
43146;SDS011;28752;48.266;7.402;2023-06-22T09:12:25;9.68;;;5.80;;
43146;SDS011;28752;48.266;7.402;2023-06-22T09:14:52;10.60;;;7.07;;
43146;SDS011;28752;48.266;7.402;2023-06-22T09:17:18;11.57;;;6.63;;
43146;SDS011;28752;48.266;7.402;2023-06-22T09:19:43;11.15;;;6.85;;
43146;SDS011;28752;48.266;7.402;2023-06-22T09:22:09;13.18;;;6.03;;
43146;SDS011;28752;48.266;7.402;2023-06-22T09:24:34;10.82;;;5.95;;
43146;SDS011;28752;48.266;7.402;2023-06-22T09:27:00;10.95;;;5.53;;
43146;SDS011;28752;48.266;7.402;2023-06-22T09:29:25;8.82;;;5.65;;
43146;SDS011;28752;48.266;7.402;2023-06-22T09:31:51;11.00;;;6.32;;
43146;SDS011;28752;48.266;7.402;2023-06-22T09:34:18;8.73;;;5.78;;
43146;SDS011;28752;48.266;7.402;2023-06-22T09:36:45;11.45;;;7.00;;
43146;SDS011;28752;48.266;7.402;2023-06-22T09:39:13;12.93;;;6.50;;
43146;SDS011;28752;48.266;7.402;2023-06-22T09:41:39;12.70;;;7.45;;
43146;SDS011;28752;48.266;7.402;2023-06-22T09:44:04;12.18;;;7.03;;
43146;SDS011;28752;48.266;7.402;2023-06-22T09:46:30;11.40;;;6.80;;
43146;SDS011;28752;48.266;7.402;2023-06-22T09:48:55;10.43;;;6.38;;
43146;SDS011;28752;48.266;7.402;2023-06-22T09:51:20;12.18;;;6.38;;
43146;SDS011;28752;48.266;7.402;2023-06-22T09:53:47;11.13;;;6.15;;
43146;SDS011;28752;48.266;7.402;2023-06-22T09:56:12;11.88;;;6.70;;
43146;SDS011;28752;48.266;7.402;2023-06-22T09:58:40;12.05;;;6.47;;
43146;SDS011;28752;48.266;7.402;2023-06-22T10:01:09;11.27;;;7.75;;
43146;SDS011;28752;48.266;7.402;2023-06-22T10:03:35;13.38;;;7.32;;
43146;SDS011;28752;48.266;7.402;2023-06-22T10:06:01;12.68;;;7.13;;
43146;SDS011;28752;48.266;7.402;2023-06-22T10:08:27;12.30;;;7.90;;
43146;SDS011;28752;48.266;7.402;2023-06-22T10:10:52;11.73;;;7.57;;
43146;SDS011;28752;48.266;7.402;2023-06-22T10:13:18;11.60;;;6.85;;
43146;SDS011;28752;48.266;7.402;2023-06-22T10:15:44;12.15;;;7.32;;
43146;SDS011;28752;48.266;7.402;2023-06-22T10:18:16;13.63;;;7.30;;
43146;SDS011;28752;48.266;7.402;2023-06-22T10:20:42;14.40;;;6.68;;
43146;SDS011;28752;48.266;7.402;2023-06-22T10:23:07;12.70;;;7.05;;
43146;SDS011;28752;48.266;7.402;2023-06-22T10:25:32;11.90;;;6.75;;
43146;SDS011;28752;48.266;7.402;2023-06-22T10:27:58;10.75;;;6.05;;
43146;SDS011;28752;48.266;7.402;2023-06-22T10:30:23;13.30;;;7.43;;
43146;SDS011;28752;48.266;7.402;2023-06-22T10:32:48;13.52;;;7.32;;
43146;SDS011;28752;48.266;7.402;2023-06-22T10:35:14;11.82;;;6.80;;
43146;SDS011;28752;48.266;7.402;2023-06-22T10:37:41;13.65;;;7.85;;
43146;SDS011;28752;48.266;7.402;2023-06-22T10:40:08;12.35;;;7.63;;
43146;SDS011;28752;48.266;7.402;2023-06-22T10:42:34;12.05;;;6.75;;
43146;SDS011;28752;48.266;7.402;2023-06-22T10:44:59;14.85;;;8.43;;
43146;SDS011;28752;48.266;7.402;2023-06-22T10:47:25;11.77;;;7.65;;
43146;SDS011;28752;48.266;7.402;2023-06-22T10:49:50;11.18;;;7.75;;
43146;SDS011;28752;48.266;7.402;2023-06-22T10:52:15;11.40;;;7.35;;
43146;SDS011;28752;48.266;7.402;2023-06-22T10:54:41;15.70;;;8.70;;
43146;SDS011;28752;48.266;7.402;2023-06-22T10:57:06;11.10;;;6.75;;
43146;SDS011;28752;48.266;7.402;2023-06-22T10:59:31;11.38;;;7.05;;
43146;SDS011;28752;48.266;7.402;2023-06-22T11:01:57;10.10;;;5.97;;
43146;SDS011;28752;48.266;7.402;2023-06-22T11:04:23;11.15;;;5.57;;
43146;SDS011;28752;48.266;7.402;2023-06-22T11:06:49;10.63;;;6.65;;
43146;SDS011;28752;48.266;7.402;2023-06-22T11:09:15;9.38;;;5.53;;
43146;SDS011;28752;48.266;7.402;2023-06-22T11:11:49;8.35;;;5.10;;
43146;SDS011;28752;48.266;7.402;2023-06-22T11:14:18;10.05;;;5.65;;
43146;SDS011;28752;48.266;7.402;2023-06-22T11:16:44;8.45;;;4.60;;
43146;SDS011;28752;48.266;7.402;2023-06-22T11:19:09;9.15;;;5.30;;
43146;SDS011;28752;48.266;7.402;2023-06-22T11:21:35;9.85;;;4.72;;
43146;SDS011;28752;48.266;7.402;2023-06-22T11:24:00;8.65;;;4.90;;
43146;SDS011;28752;48.266;7.402;2023-06-22T11:26:26;8.57;;;5.25;;
43146;SDS011;28752;48.266;7.402;2023-06-22T11:28:52;8.48;;;4.75;;
43146;SDS011;28752;48.266;7.402;2023-06-22T11:31:18;8.20;;;4.57;;
43146;SDS011;28752;48.266;7.402;2023-06-22T11:33:43;8.95;;;4.80;;
43146;SDS011;28752;48.266;7.402;2023-06-22T11:36:10;8.45;;;4.40;;
43146;SDS011;28752;48.266;7.402;2023-06-22T11:38:36;9.05;;;4.50;;
43146;SDS011;28752;48.266;7.402;2023-06-22T11:41:04;8.05;;;4.32;;
43146;SDS011;28752;48.266;7.402;2023-06-22T11:43:30;6.15;;;3.72;;
43146;SDS011;28752;48.266;7.402;2023-06-22T11:45:55;10.07;;;4.63;;
43146;SDS011;28752;48.266;7.402;2023-06-22T11:48:22;6.93;;;3.78;;
43146;SDS011;28752;48.266;7.402;2023-06-22T11:50:49;7.00;;;3.88;;
43146;SDS011;28752;48.266;7.402;2023-06-22T11:53:14;8.32;;;3.50;;
43146;SDS011;28752;48.266;7.402;2023-06-22T11:55:41;8.30;;;4.28;;
43146;SDS011;28752;48.266;7.402;2023-06-22T11:58:07;10.18;;;4.45;;
43146;SDS011;28752;48.266;7.402;2023-06-22T12:00:33;8.23;;;3.65;;
43146;SDS011;28752;48.266;7.402;2023-06-22T12:02:58;7.95;;;3.95;;
43146;SDS011;28752;48.266;7.402;2023-06-22T12:05:24;8.10;;;4.00;;
43146;SDS011;28752;48.266;7.402;2023-06-22T12:07:50;7.90;;;3.97;;
43146;SDS011;28752;48.266;7.402;2023-06-22T12:10:17;7.40;;;3.28;;
43146;SDS011;28752;48.266;7.402;2023-06-22T12:12:43;8.35;;;3.70;;
43146;SDS011;28752;48.266;7.402;2023-06-22T12:15:09;7.38;;;3.00;;
43146;SDS011;28752;48.266;7.402;2023-06-22T12:17:34;6.22;;;3.42;;
43146;SDS011;28752;48.266;7.402;2023-06-22T12:20:00;7.70;;;3.08;;
43146;SDS011;28752;48.266;7.402;2023-06-22T12:22:26;9.07;;;4.50;;
43146;SDS011;28752;48.266;7.402;2023-06-22T12:24:51;6.10;;;3.00;;
43146;SDS011;28752;48.266;7.402;2023-06-22T12:27:17;7.15;;;3.65;;
43146;SDS011;28752;48.266;7.402;2023-06-22T12:29:45;6.50;;;3.42;;
43146;SDS011;28752;48.266;7.402;2023-06-22T12:32:11;7.97;;;3.80;;
43146;SDS011;28752;48.266;7.402;2023-06-22T12:34:38;5.40;;;3.40;;
43146;SDS011;28752;48.266;7.402;2023-06-22T12:37:04;12.13;;;4.30;;
43146;SDS011;28752;48.266;7.402;2023-06-22T12:39:31;7.50;;;3.55;;
43146;SDS011;28752;48.266;7.402;2023-06-22T12:41:57;8.85;;;3.30;;
43146;SDS011;28752;48.266;7.402;2023-06-22T12:44:22;8.32;;;3.83;;
43146;SDS011;28752;48.266;7.402;2023-06-22T12:46:47;9.00;;;4.00;;
43146;SDS011;28752;48.266;7.402;2023-06-22T12:49:13;7.63;;;3.55;;
43146;SDS011;28752;48.266;7.402;2023-06-22T12:51:41;7.15;;;3.92;;
43146;SDS011;28752;48.266;7.402;2023-06-22T12:54:08;10.40;;;3.55;;
43146;SDS011;28752;48.266;7.402;2023-06-22T12:56:33;6.32;;;3.47;;
43146;SDS011;28752;48.266;7.402;2023-06-22T12:58:59;7.43;;;3.35;;
43146;SDS011;28752;48.266;7.402;2023-06-22T13:01:26;6.68;;;3.10;;
43146;SDS011;28752;48.266;7.402;2023-06-22T13:03:52;8.07;;;3.47;;
43146;SDS011;28752;48.266;7.402;2023-06-22T13:06:17;9.13;;;3.92;;
43146;SDS011;28752;48.266;7.402;2023-06-22T13:08:43;7.75;;;3.40;;
43146;SDS011;28752;48.266;7.402;2023-06-22T13:11:08;8.23;;;3.40;;
43146;SDS011;28752;48.266;7.402;2023-06-22T13:13:33;7.35;;;3.35;;
43146;SDS011;28752;48.266;7.402;2023-06-22T13:15:59;6.80;;;4.05;;
43146;SDS011;28752;48.266;7.402;2023-06-22T13:18:24;6.35;;;3.17;;
43146;SDS011;28752;48.266;7.402;2023-06-22T13:20:50;6.65;;;2.88;;
43146;SDS011;28752;48.266;7.402;2023-06-22T13:23:15;7.57;;;2.90;;
43146;SDS011;28752;48.266;7.402;2023-06-22T13:25:45;9.07;;;4.25;;
43146;SDS011;28752;48.266;7.402;2023-06-22T13:28:10;6.50;;;3.58;;
43146;SDS011;28752;48.266;7.402;2023-06-22T13:30:38;7.05;;;3.33;;
43146;SDS011;28752;48.266;7.402;2023-06-22T13:33:04;10.60;;;3.88;;
43146;SDS011;28752;48.266;7.402;2023-06-22T13:35:29;7.22;;;3.35;;
43146;SDS011;28752;48.266;7.402;2023-06-22T13:37:55;6.90;;;3.42;;
43146;SDS011;28752;48.266;7.402;2023-06-22T13:40:20;8.05;;;3.88;;
43146;SDS011;28752;48.266;7.402;2023-06-22T13:42:45;5.93;;;3.50;;
43146;SDS011;28752;48.266;7.402;2023-06-22T13:45:11;7.95;;;3.13;;
43146;SDS011;28752;48.266;7.402;2023-06-22T13:47:36;5.13;;;1.98;;
43146;SDS011;28752;48.266;7.402;2023-06-22T13:50:01;7.55;;;2.40;;
43146;SDS011;28752;48.266;7.402;2023-06-22T13:52:27;8.85;;;2.55;;
43146;SDS011;28752;48.266;7.402;2023-06-22T13:54:52;6.93;;;2.28;;
43146;SDS011;28752;48.266;7.402;2023-06-22T13:57:18;6.05;;;2.35;;
43146;SDS011;28752;48.266;7.402;2023-06-22T13:59:43;10.32;;;2.33;;
43146;SDS011;28752;48.266;7.402;2023-06-22T14:02:09;6.00;;;2.33;;
43146;SDS011;28752;48.266;7.402;2023-06-22T14:04:34;5.75;;;1.92;;
43146;SDS011;28752;48.266;7.402;2023-06-22T14:07:00;4.90;;;2.15;;
43146;SDS011;28752;48.266;7.402;2023-06-22T14:09:25;6.93;;;2.42;;
43146;SDS011;28752;48.266;7.402;2023-06-22T14:11:50;7.07;;;2.20;;
43146;SDS011;28752;48.266;7.402;2023-06-22T14:14:16;8.73;;;2.70;;
43146;SDS011;28752;48.266;7.402;2023-06-22T14:16:41;6.38;;;2.45;;
43146;SDS011;28752;48.266;7.402;2023-06-22T14:19:06;7.15;;;1.92;;
43146;SDS011;28752;48.266;7.402;2023-06-22T14:21:32;5.88;;;2.05;;
43146;SDS011;28752;48.266;7.402;2023-06-22T14:23:57;4.70;;;1.90;;
43146;SDS011;28752;48.266;7.402;2023-06-22T14:26:22;4.22;;;2.05;;
43146;SDS011;28752;48.266;7.402;2023-06-22T14:28:48;4.82;;;1.70;;
43146;SDS011;28752;48.266;7.402;2023-06-22T14:31:18;4.85;;;2.20;;
43146;SDS011;28752;48.266;7.402;2023-06-22T14:33:45;5.82;;;1.80;;
43146;SDS011;28752;48.266;7.402;2023-06-22T14:36:12;6.03;;;1.85;;
43146;SDS011;28752;48.266;7.402;2023-06-22T14:38:38;6.05;;;2.20;;
43146;SDS011;28752;48.266;7.402;2023-06-22T14:41:04;7.38;;;2.38;;
43146;SDS011;28752;48.266;7.402;2023-06-22T14:43:29;6.47;;;2.13;;
43146;SDS011;28752;48.266;7.402;2023-06-22T14:45:55;4.47;;;2.03;;
43146;SDS011;28752;48.266;7.402;2023-06-22T14:48:20;5.88;;;2.47;;
43146;SDS011;28752;48.266;7.402;2023-06-22T14:50:46;5.65;;;1.98;;
43146;SDS011;28752;48.266;7.402;2023-06-22T14:53:11;7.40;;;2.70;;
43146;SDS011;28752;48.266;7.402;2023-06-22T14:55:36;7.78;;;2.88;;
43146;SDS011;28752;48.266;7.402;2023-06-22T14:58:02;10.23;;;3.22;;
43146;SDS011;28752;48.266;7.402;2023-06-22T15:00:27;7.95;;;3.10;;
43146;SDS011;28752;48.266;7.402;2023-06-22T15:02:52;6.88;;;3.63;;
43146;SDS011;28752;48.266;7.402;2023-06-22T15:05:18;7.88;;;3.50;;
43146;SDS011;28752;48.266;7.402;2023-06-22T15:07:43;6.85;;;2.88;;
43146;SDS011;28752;48.266;7.402;2023-06-22T15:10:09;6.10;;;2.83;;
43146;SDS011;28752;48.266;7.402;2023-06-22T15:12:34;8.57;;;3.20;;
43146;SDS011;28752;48.266;7.402;2023-06-22T15:14:59;7.38;;;3.13;;